Airport Information

KTTD - Portland Troutdale Airport

KTTD 160653Z AUTO 08015G24KT 10SM CLR 03/M03 A2979 RMK AO2 SLP089 T00281033


  • General Information

  • Coordinates: N 45°32'57"/ W 122°24'4"
  • Location: N/A
  • Surveyed Elevation: 39 MSL

Operations

Flow Name Active Runways Conditions

Green background denotes normal operations.


Common Frequencies

Callsign Frequency Position Name

More at the Document Center


Charts

Name Description Cycle
BLUE LAKE THREE Page 1 1901
Name Description Cycle
HELNS SIX Page 1 1901
OCITY TWO Page 1 1901